sensor_id;sensor_type;location;lat;lon;timestamp;temperature;humidity
76168;DHT22;64927;48.214;16.378;2022-11-12T00:00:27;11.20;71.70
76168;DHT22;64927;48.214;16.378;2022-11-12T00:02:53;11.20;71.80
76168;DHT22;64927;48.214;16.378;2022-11-12T00:05:18;11.20;71.90
76168;DHT22;64927;48.214;16.378;2022-11-12T00:07:44;11.20;72.00
76168;DHT22;64927;48.214;16.378;2022-11-12T00:10:10;11.10;72.10
76168;DHT22;64927;48.214;16.378;2022-11-12T00:12:35;11.10;72.10
76168;DHT22;64927;48.214;16.378;2022-11-12T00:15:01;11.10;72.10
76168;DHT22;64927;48.214;16.378;2022-11-12T00:17:27;11.10;72.00
76168;DHT22;64927;48.214;16.378;2022-11-12T00:19:54;11.10;71.90
76168;DHT22;64927;48.214;16.378;2022-11-12T00:22:21;11.00;71.80
76168;DHT22;64927;48.214;16.378;2022-11-12T00:24:47;11.00;71.80
76168;DHT22;64927;48.214;16.378;2022-11-12T00:27:12;10.90;72.10
76168;DHT22;64927;48.214;16.378;2022-11-12T00:29:41;10.80;72.10
76168;DHT22;64927;48.214;16.378;2022-11-12T00:32:07;10.80;72.50
76168;DHT22;64927;48.214;16.378;2022-11-12T00:34:33;10.70;72.60
76168;DHT22;64927;48.214;16.378;2022-11-12T00:37:01;10.70;73.00
76168;DHT22;64927;48.214;16.378;2022-11-12T00:39:27;10.60;73.10
76168;DHT22;64927;48.214;16.378;2022-11-12T00:41:56;10.60;73.20
76168;DHT22;64927;48.214;16.378;2022-11-12T00:44:24;10.60;73.00
76168;DHT22;64927;48.214;16.378;2022-11-12T00:46:49;10.60;73.30
76168;DHT22;64927;48.214;16.378;2022-11-12T00:49:15;10.60;73.40
76168;DHT22;64927;48.214;16.378;2022-11-12T00:51:41;10.60;73.50
76168;DHT22;64927;48.214;16.378;2022-11-12T00:54:07;10.60;73.40
76168;DHT22;64927;48.214;16.378;2022-11-12T00:56:33;10.60;74.10
76168;DHT22;64927;48.214;16.378;2022-11-12T00:59:01;10.60;72.80
76168;DHT22;64927;48.214;16.378;2022-11-12T01:01:27;10.60;73.00
76168;DHT22;64927;48.214;16.378;2022-11-12T01:03:53;10.50;72.70
76168;DHT22;64927;48.214;16.378;2022-11-12T01:06:21;10.40;73.30
76168;DHT22;64927;48.214;16.378;2022-11-12T01:08:47;10.40;73.40
76168;DHT22;64927;48.214;16.378;2022-11-12T01:11:14;10.30;73.50
76168;DHT22;64927;48.214;16.378;2022-11-12T01:13:43;10.30;73.70
76168;DHT22;64927;48.214;16.378;2022-11-12T01:16:20;10.30;73.90
76168;DHT22;64927;48.214;16.378;2022-11-12T01:18:47;10.30;73.90
76168;DHT22;64927;48.214;16.378;2022-11-12T01:21:21;10.30;73.70
76168;DHT22;64927;48.214;16.378;2022-11-12T01:23:46;10.20;73.80
76168;DHT22;64927;48.214;16.378;2022-11-12T01:26:14;10.20;73.80
76168;DHT22;64927;48.214;16.378;2022-11-12T01:28:41;10.30;73.50
76168;DHT22;64927;48.214;16.378;2022-11-12T01:31:22;10.20;73.70
76168;DHT22;64927;48.214;16.378;2022-11-12T01:33:52;10.30;73.90
76168;DHT22;64927;48.214;16.378;2022-11-12T01:36:18;10.20;73.80
76168;DHT22;64927;48.214;16.378;2022-11-12T01:38:45;10.20;73.80
76168;DHT22;64927;48.214;16.378;2022-11-12T01:41:19;10.20;74.00
76168;DHT22;64927;48.214;16.378;2022-11-12T01:43:45;10.20;73.80
76168;DHT22;64927;48.214;16.378;2022-11-12T01:46:22;10.20;74.10
76168;DHT22;64927;48.214;16.378;2022-11-12T01:48:58;10.20;75.00
76168;DHT22;64927;48.214;16.378;2022-11-12T01:51:34;10.20;74.10
76168;DHT22;64927;48.214;16.378;2022-11-12T01:54:08;10.20;73.90
76168;DHT22;64927;48.214;16.378;2022-11-12T01:56:35;10.20;74.10
76168;DHT22;64927;48.214;16.378;2022-11-12T01:59:07;10.20;74.20
76168;DHT22;64927;48.214;16.378;2022-11-12T02:01:36;10.00;74.30
76168;DHT22;64927;48.214;16.378;2022-11-12T02:04:02;10.00;74.40
76168;DHT22;64927;48.214;16.378;2022-11-12T02:06:28;10.00;74.20
76168;DHT22;64927;48.214;16.378;2022-11-12T02:08:55;10.00;73.70
76168;DHT22;64927;48.214;16.378;2022-11-12T02:11:21;10.00;73.60
76168;DHT22;64927;48.214;16.378;2022-11-12T02:13:48;10.00;73.10
76168;DHT22;64927;48.214;16.378;2022-11-12T02:16:35;10.00;73.20
76168;DHT22;64927;48.214;16.378;2022-11-12T02:19:02;10.10;73.10
76168;DHT22;64927;48.214;16.378;2022-11-12T02:21:31;10.00;73.00
76168;DHT22;64927;48.214;16.378;2022-11-12T02:24:05;10.00;73.30
76168;DHT22;64927;48.214;16.378;2022-11-12T02:26:39;10.10;73.00
76168;DHT22;64927;48.214;16.378;2022-11-12T02:29:06;10.10;73.10
76168;DHT22;64927;48.214;16.378;2022-11-12T02:31:34;10.10;72.80
76168;DHT22;64927;48.214;16.378;2022-11-12T02:33:59;10.10;72.80
76168;DHT22;64927;48.214;16.378;2022-11-12T02:36:26;10.10;72.60
76168;DHT22;64927;48.214;16.378;2022-11-12T02:38:55;10.10;72.50
76168;DHT22;64927;48.214;16.378;2022-11-12T02:41:21;10.10;72.80
76168;DHT22;64927;48.214;16.378;2022-11-12T02:43:46;10.10;72.60
76168;DHT22;64927;48.214;16.378;2022-11-12T02:46:13;10.10;72.70
76168;DHT22;64927;48.214;16.378;2022-11-12T02:48:43;10.10;72.60
76168;DHT22;64927;48.214;16.378;2022-11-12T02:51:09;10.20;72.40
76168;DHT22;64927;48.214;16.378;2022-11-12T02:53:35;10.20;72.40
76168;DHT22;64927;48.214;16.378;2022-11-12T02:56:01;10.20;72.40
76168;DHT22;64927;48.214;16.378;2022-11-12T02:58:27;10.30;72.30
76168;DHT22;64927;48.214;16.378;2022-11-12T03:00:54;10.30;73.00
76168;DHT22;64927;48.214;16.378;2022-11-12T03:03:20;10.30;72.10
76168;DHT22;64927;48.214;16.378;2022-11-12T03:05:58;10.40;72.10
76168;DHT22;64927;48.214;16.378;2022-11-12T03:08:24;10.50;71.80
76168;DHT22;64927;48.214;16.378;2022-11-12T03:10:50;10.60;71.70
76168;DHT22;64927;48.214;16.378;2022-11-12T03:13:16;10.50;71.50
76168;DHT22;64927;48.214;16.378;2022-11-12T03:15:42;10.60;71.40
76168;DHT22;64927;48.214;16.378;2022-11-12T03:18:07;10.60;71.30
76168;DHT22;64927;48.214;16.378;2022-11-12T03:20:33;10.60;71.10
76168;DHT22;64927;48.214;16.378;2022-11-12T03:23:08;10.60;71.00
76168;DHT22;64927;48.214;16.378;2022-11-12T03:25:35;10.60;70.90
76168;DHT22;64927;48.214;16.378;2022-11-12T03:28:03;10.60;70.70
76168;DHT22;64927;48.214;16.378;2022-11-12T03:30:32;10.50;70.60
76168;DHT22;64927;48.214;16.378;2022-11-12T03:32:58;10.50;70.50
76168;DHT22;64927;48.214;16.378;2022-11-12T03:35:26;10.50;70.60
76168;DHT22;64927;48.214;16.378;2022-11-12T03:37:52;10.40;70.70
76168;DHT22;64927;48.214;16.378;2022-11-12T03:40:18;10.50;70.70
76168;DHT22;64927;48.214;16.378;2022-11-12T03:42:48;10.40;70.70
76168;DHT22;64927;48.214;16.378;2022-11-12T03:45:15;10.40;70.60
76168;DHT22;64927;48.214;16.378;2022-11-12T03:47:52;10.40;70.40
76168;DHT22;64927;48.214;16.378;2022-11-12T03:50:21;10.40;70.30
76168;DHT22;64927;48.214;16.378;2022-11-12T03:52:49;10.30;70.60
76168;DHT22;64927;48.214;16.378;2022-11-12T03:55:17;10.20;71.10
76168;DHT22;64927;48.214;16.378;2022-11-12T03:57:43;10.10;71.70
76168;DHT22;64927;48.214;16.378;2022-11-12T04:00:10;10.00;71.80
76168;DHT22;64927;48.214;16.378;2022-11-12T04:02:37;10.00;71.90
76168;DHT22;64927;48.214;16.378;2022-11-12T04:05:03;10.00;71.90
76168;DHT22;64927;48.214;16.378;2022-11-12T04:08:05;10.00;71.80
76168;DHT22;64927;48.214;16.378;2022-11-12T04:10:50;10.00;71.70
76168;DHT22;64927;48.214;16.378;2022-11-12T04:13:16;9.90;71.80
76168;DHT22;64927;48.214;16.378;2022-11-12T04:16:00;9.90;71.70
76168;DHT22;64927;48.214;16.378;2022-11-12T04:18:47;9.80;71.80
76168;DHT22;64927;48.214;16.378;2022-11-12T04:21:49;9.80;71.50
76168;DHT22;64927;48.214;16.378;2022-11-12T04:27:07;9.50;72.10
76168;DHT22;64927;48.214;16.378;2022-11-12T04:29:33;9.50;72.20
76168;DHT22;64927;48.214;16.378;2022-11-12T04:32:18;9.50;72.10
76168;DHT22;64927;48.214;16.378;2022-11-12T04:34:44;9.50;71.90
76168;DHT22;64927;48.214;16.378;2022-11-12T04:37:09;9.40;72.00
76168;DHT22;64927;48.214;16.378;2022-11-12T04:39:35;9.40;72.20
76168;DHT22;64927;48.214;16.378;2022-11-12T04:42:01;9.30;72.20
76168;DHT22;64927;48.214;16.378;2022-11-12T04:44:45;9.30;72.00
76168;DHT22;64927;48.214;16.378;2022-11-12T04:47:30;9.30;72.30
76168;DHT22;64927;48.214;16.378;2022-11-12T04:49:58;9.30;72.20
76168;DHT22;64927;48.214;16.378;2022-11-12T04:52:26;9.20;72.30
76168;DHT22;64927;48.214;16.378;2022-11-12T04:54:52;9.20;72.50
76168;DHT22;64927;48.214;16.378;2022-11-12T04:57:18;9.10;72.70
76168;DHT22;64927;48.214;16.378;2022-11-12T04:59:43;9.10;73.10
76168;DHT22;64927;48.214;16.378;2022-11-12T05:02:09;9.10;73.10
76168;DHT22;64927;48.214;16.378;2022-11-12T05:04:34;9.20;72.80
76168;DHT22;64927;48.214;16.378;2022-11-12T05:07:00;9.10;72.70
76168;DHT22;64927;48.214;16.378;2022-11-12T05:09:28;9.00;73.20
76168;DHT22;64927;48.214;16.378;2022-11-12T05:11:56;9.00;73.60
76168;DHT22;64927;48.214;16.378;2022-11-12T05:14:23;9.00;73.60
76168;DHT22;64927;48.214;16.378;2022-11-12T05:16:51;8.90;73.90
76168;DHT22;64927;48.214;16.378;2022-11-12T05:19:17;8.90;73.60
76168;DHT22;64927;48.214;16.378;2022-11-12T05:21:44;9.00;73.50
76168;DHT22;64927;48.214;16.378;2022-11-12T05:24:30;9.00;73.20
76168;DHT22;64927;48.214;16.378;2022-11-12T05:26:55;9.00;72.90
76168;DHT22;64927;48.214;16.378;2022-11-12T05:29:26;9.00;73.00
76168;DHT22;64927;48.214;16.378;2022-11-12T05:31:51;9.00;73.20
76168;DHT22;64927;48.214;16.378;2022-11-12T05:34:17;8.90;73.50
76168;DHT22;64927;48.214;16.378;2022-11-12T05:36:45;8.90;73.80
76168;DHT22;64927;48.214;16.378;2022-11-12T05:39:11;8.90;73.60
76168;DHT22;64927;48.214;16.378;2022-11-12T05:41:36;8.90;73.70
76168;DHT22;64927;48.214;16.378;2022-11-12T05:44:02;8.80;74.30
76168;DHT22;64927;48.214;16.378;2022-11-12T05:46:28;8.80;74.40
76168;DHT22;64927;48.214;16.378;2022-11-12T05:48:53;8.80;74.10
76168;DHT22;64927;48.214;16.378;2022-11-12T05:51:19;8.80;74.10
76168;DHT22;64927;48.214;16.378;2022-11-12T05:53:45;8.80;74.10
76168;DHT22;64927;48.214;16.378;2022-11-12T05:56:10;8.80;74.20
76168;DHT22;64927;48.214;16.378;2022-11-12T05:58:38;8.80;74.20
76168;DHT22;64927;48.214;16.378;2022-11-12T06:01:06;8.80;74.20
76168;DHT22;64927;48.214;16.378;2022-11-12T06:03:32;8.80;74.10
76168;DHT22;64927;48.214;16.378;2022-11-12T06:05:58;8.70;74.20
76168;DHT22;64927;48.214;16.378;2022-11-12T06:08:26;8.60;74.80
76168;DHT22;64927;48.214;16.378;2022-11-12T06:10:53;8.60;75.00
76168;DHT22;64927;48.214;16.378;2022-11-12T06:13:22;8.60;74.70
76168;DHT22;64927;48.214;16.378;2022-11-12T06:15:54;8.70;74.60
76168;DHT22;64927;48.214;16.378;2022-11-12T06:18:22;8.70;74.50
76168;DHT22;64927;48.214;16.378;2022-11-12T06:20:48;8.70;74.30
76168;DHT22;64927;48.214;16.378;2022-11-12T06:23:33;8.60;75.00
76168;DHT22;64927;48.214;16.378;2022-11-12T06:25:59;8.40;75.40
76168;DHT22;64927;48.214;16.378;2022-11-12T06:28:25;8.40;75.50
76168;DHT22;64927;48.214;16.378;2022-11-12T06:30:53;8.50;75.30
76168;DHT22;64927;48.214;16.378;2022-11-12T06:33:19;8.30;75.50
76168;DHT22;64927;48.214;16.378;2022-11-12T06:35:45;8.40;75.70
76168;DHT22;64927;48.214;16.378;2022-11-12T06:38:10;8.40;75.50
76168;DHT22;64927;48.214;16.378;2022-11-12T06:40:36;8.50;75.00
76168;DHT22;64927;48.214;16.378;2022-11-12T06:43:02;8.50;75.00
76168;DHT22;64927;48.214;16.378;2022-11-12T06:45:28;8.40;75.10
76168;DHT22;64927;48.214;16.378;2022-11-12T06:47:59;8.50;75.30
76168;DHT22;64927;48.214;16.378;2022-11-12T06:50:27;8.40;75.30
76168;DHT22;64927;48.214;16.378;2022-11-12T06:52:57;8.60;75.30
76168;DHT22;64927;48.214;16.378;2022-11-12T06:55:23;8.60;75.10
76168;DHT22;64927;48.214;16.378;2022-11-12T06:57:52;8.60;74.60
76168;DHT22;64927;48.214;16.378;2022-11-12T07:00:18;8.70;74.70
76168;DHT22;64927;48.214;16.378;2022-11-12T07:02:44;8.80;74.30
76168;DHT22;64927;48.214;16.378;2022-11-12T07:05:10;9.00;73.90
76168;DHT22;64927;48.214;16.378;2022-11-12T07:07:35;9.10;73.30
76168;DHT22;64927;48.214;16.378;2022-11-12T07:10:03;9.20;72.80
76168;DHT22;64927;48.214;16.378;2022-11-12T07:12:31;9.20;72.80
76168;DHT22;64927;48.214;16.378;2022-11-12T07:14:59;9.00;73.00
76168;DHT22;64927;48.214;16.378;2022-11-12T07:17:25;9.10;73.30
76168;DHT22;64927;48.214;16.378;2022-11-12T07:19:51;9.20;73.00
76168;DHT22;64927;48.214;16.378;2022-11-12T07:22:16;9.30;72.30
76168;DHT22;64927;48.214;16.378;2022-11-12T07:24:42;9.30;72.40
76168;DHT22;64927;48.214;16.378;2022-11-12T07:27:07;9.40;72.60
76168;DHT22;64927;48.214;16.378;2022-11-12T07:29:33;9.40;72.30
76168;DHT22;64927;48.214;16.378;2022-11-12T07:31:59;9.50;72.10
76168;DHT22;64927;48.214;16.378;2022-11-12T07:34:25;9.60;71.50
76168;DHT22;64927;48.214;16.378;2022-11-12T07:36:53;9.50;71.60
76168;DHT22;64927;48.214;16.378;2022-11-12T07:39:21;9.50;72.00
76168;DHT22;64927;48.214;16.378;2022-11-12T07:41:46;9.50;72.30
76168;DHT22;64927;48.214;16.378;2022-11-12T07:44:12;9.60;72.20
76168;DHT22;64927;48.214;16.378;2022-11-12T07:46:37;9.60;72.00
76168;DHT22;64927;48.214;16.378;2022-11-12T07:49:03;9.70;71.70
76168;DHT22;64927;48.214;16.378;2022-11-12T07:51:29;9.70;71.90
76168;DHT22;64927;48.214;16.378;2022-11-12T07:53:56;9.90;71.20
76168;DHT22;64927;48.214;16.378;2022-11-12T07:56:24;10.00;71.00
76168;DHT22;64927;48.214;16.378;2022-11-12T07:58:51;10.00;70.90
76168;DHT22;64927;48.214;16.378;2022-11-12T08:01:23;10.20;70.60
76168;DHT22;64927;48.214;16.378;2022-11-12T08:03:50;10.40;69.00
76168;DHT22;64927;48.214;16.378;2022-11-12T08:06:15;10.50;68.60
76168;DHT22;64927;48.214;16.378;2022-11-12T08:08:41;10.60;68.90
76168;DHT22;64927;48.214;16.378;2022-11-12T08:11:07;10.80;68.70
76168;DHT22;64927;48.214;16.378;2022-11-12T08:13:33;11.00;69.20
76168;DHT22;64927;48.214;16.378;2022-11-12T08:15:59;11.10;67.80
76168;DHT22;64927;48.214;16.378;2022-11-12T08:18:25;11.20;67.20
76168;DHT22;64927;48.214;16.378;2022-11-12T08:21:04;11.20;67.70
76168;DHT22;64927;48.214;16.378;2022-11-12T08:23:30;11.30;67.30
76168;DHT22;64927;48.214;16.378;2022-11-12T08:26:01;11.40;66.00
76168;DHT22;64927;48.214;16.378;2022-11-12T08:28:28;11.30;66.40
76168;DHT22;64927;48.214;16.378;2022-11-12T08:30:54;11.20;67.10
76168;DHT22;64927;48.214;16.378;2022-11-12T08:33:19;11.10;67.40
76168;DHT22;64927;48.214;16.378;2022-11-12T08:35:45;11.30;68.00
76168;DHT22;64927;48.214;16.378;2022-11-12T08:38:10;11.50;66.70
76168;DHT22;64927;48.214;16.378;2022-11-12T08:40:38;11.80;66.20
76168;DHT22;64927;48.214;16.378;2022-11-12T08:43:10;12.00;65.80
76168;DHT22;64927;48.214;16.378;2022-11-12T08:45:40;12.10;64.30
76168;DHT22;64927;48.214;16.378;2022-11-12T08:48:09;12.10;64.50
76168;DHT22;64927;48.214;16.378;2022-11-12T08:50:35;12.30;64.90
76168;DHT22;64927;48.214;16.378;2022-11-12T08:53:06;12.50;63.50
76168;DHT22;64927;48.214;16.378;2022-11-12T08:55:33;12.70;63.80
76168;DHT22;64927;48.214;16.378;2022-11-12T08:58:02;12.80;62.30
76168;DHT22;64927;48.214;16.378;2022-11-12T09:00:33;13.10;62.70
76168;DHT22;64927;48.214;16.378;2022-11-12T09:03:03;13.20;62.10
76168;DHT22;64927;48.214;16.378;2022-11-12T09:05:32;13.50;62.00
76168;DHT22;64927;48.214;16.378;2022-11-12T09:08:03;13.50;60.50
76168;DHT22;64927;48.214;16.378;2022-11-12T09:10:31;13.50;59.10
76168;DHT22;64927;48.214;16.378;2022-11-12T09:13:00;13.70;60.40
76168;DHT22;64927;48.214;16.378;2022-11-12T09:15:27;13.60;59.10
76168;DHT22;64927;48.214;16.378;2022-11-12T09:18:01;13.60;58.70
76168;DHT22;64927;48.214;16.378;2022-11-12T09:20:28;13.80;58.50
76168;DHT22;64927;48.214;16.378;2022-11-12T09:23:05;13.90;58.30
76168;DHT22;64927;48.214;16.378;2022-11-12T09:25:34;14.10;57.70
76168;DHT22;64927;48.214;16.378;2022-11-12T09:28:13;14.20;57.20
76168;DHT22;64927;48.214;16.378;2022-11-12T09:30:44;14.30;56.30
76168;DHT22;64927;48.214;16.378;2022-11-12T09:33:22;14.30;56.20
76168;DHT22;64927;48.214;16.378;2022-11-12T09:35:49;14.40;56.50
76168;DHT22;64927;48.214;16.378;2022-11-12T09:38:18;14.40;56.60
76168;DHT22;64927;48.214;16.378;2022-11-12T09:43:28;14.30;55.70
76168;DHT22;64927;48.214;16.378;2022-11-12T09:45:58;14.30;56.70
76168;DHT22;64927;48.214;16.378;2022-11-12T09:48:34;14.50;55.40
76168;DHT22;64927;48.214;16.378;2022-11-12T09:51:09;14.50;55.60
76168;DHT22;64927;48.214;16.378;2022-11-12T09:53:46;14.50;56.00
76168;DHT22;64927;48.214;16.378;2022-11-12T09:56:13;14.60;55.10
76168;DHT22;64927;48.214;16.378;2022-11-12T09:58:42;14.80;55.80
76168;DHT22;64927;48.214;16.378;2022-11-12T10:06:11;14.90;53.60
76168;DHT22;64927;48.214;16.378;2022-11-12T10:08:47;15.00;53.60
76168;DHT22;64927;48.214;16.378;2022-11-12T10:19:48;15.00;53.60
76168;DHT22;64927;48.214;16.378;2022-11-12T10:24:56;14.90;52.80
76168;DHT22;64927;48.214;16.378;2022-11-12T10:27:30;15.00;52.90
76168;DHT22;64927;48.214;16.378;2022-11-12T10:30:05;15.10;53.30
76168;DHT22;64927;48.214;16.378;2022-11-12T10:32:36;15.20;53.20
76168;DHT22;64927;48.214;16.378;2022-11-12T10:35:04;15.10;52.40
76168;DHT22;64927;48.214;16.378;2022-11-12T10:37:49;15.10;52.40
76168;DHT22;64927;48.214;16.378;2022-11-12T10:40:29;15.20;52.20
76168;DHT22;64927;48.214;16.378;2022-11-12T10:45:24;15.30;51.40
76168;DHT22;64927;48.214;16.378;2022-11-12T10:47:52;15.40;51.40
76168;DHT22;64927;48.214;16.378;2022-11-12T10:50:28;15.40;51.70
76168;DHT22;64927;48.214;16.378;2022-11-12T10:53:02;15.50;51.40
76168;DHT22;64927;48.214;16.378;2022-11-12T10:55:35;15.70;51.10
76168;DHT22;64927;48.214;16.378;2022-11-12T11:00:37;15.60;50.90
76168;DHT22;64927;48.214;16.378;2022-11-12T11:03:22;15.60;51.20
76168;DHT22;64927;48.214;16.378;2022-11-12T11:08:33;15.70;50.60
76168;DHT22;64927;48.214;16.378;2022-11-12T11:11:25;15.80;50.40
76168;DHT22;64927;48.214;16.378;2022-11-12T11:13:54;15.70;50.40
76168;DHT22;64927;48.214;16.378;2022-11-12T11:16:25;15.80;50.30
76168;DHT22;64927;48.214;16.378;2022-11-12T11:19:03;15.80;49.50
76168;DHT22;64927;48.214;16.378;2022-11-12T11:24:21;16.00;49.50
76168;DHT22;64927;48.214;16.378;2022-11-12T11:30:11;16.00;49.50
76168;DHT22;64927;48.214;16.378;2022-11-12T11:44:00;16.00;49.50
76168;DHT22;64927;48.214;16.378;2022-11-12T11:54:56;15.90;47.60
76168;DHT22;64927;48.214;16.378;2022-11-12T12:06:05;16.00;47.20
76168;DHT22;64927;48.214;16.378;2022-11-12T12:08:53;16.00;47.50
76168;DHT22;64927;48.214;16.378;2022-11-12T12:11:37;16.00;47.00
76168;DHT22;64927;48.214;16.378;2022-11-12T12:22:09;16.10;47.10
76168;DHT22;64927;48.214;16.378;2022-11-12T12:24:57;16.10;47.50
76168;DHT22;64927;48.214;16.378;2022-11-12T12:27:29;16.20;48.10
76168;DHT22;64927;48.214;16.378;2022-11-12T12:30:18;16.10;47.50
76168;DHT22;64927;48.214;16.378;2022-11-12T12:40:48;16.30;46.90
76168;DHT22;64927;48.214;16.378;2022-11-12T12:46:14;16.50;46.80
76168;DHT22;64927;48.214;16.378;2022-11-12T12:48:43;16.60;47.20
76168;DHT22;64927;48.214;16.378;2022-11-12T12:51:09;16.60;47.50
76168;DHT22;64927;48.214;16.378;2022-11-12T12:53:36;16.50;48.50
76168;DHT22;64927;48.214;16.378;2022-11-12T12:56:02;16.40;47.80
76168;DHT22;64927;48.214;16.378;2022-11-12T13:03:59;16.30;48.00
76168;DHT22;64927;48.214;16.378;2022-11-12T13:37:50;16.30;46.50
76168;DHT22;64927;48.214;16.378;2022-11-12T13:45:58;16.40;45.80
76168;DHT22;64927;48.214;16.378;2022-11-12T13:48:29;16.20;46.00
76168;DHT22;64927;48.214;16.378;2022-11-12T13:51:01;16.20;46.50
76168;DHT22;64927;48.214;16.378;2022-11-12T13:53:30;16.20;47.00
76168;DHT22;64927;48.214;16.378;2022-11-12T13:55:56;16.20;47.00
76168;DHT22;64927;48.214;16.378;2022-11-12T13:58:40;16.00;47.60
76168;DHT22;64927;48.214;16.378;2022-11-12T14:01:06;16.00;46.20
76168;DHT22;64927;48.214;16.378;2022-11-12T14:03:47;15.90;46.60
76168;DHT22;64927;48.214;16.378;2022-11-12T14:06:16;16.00;46.80
76168;DHT22;64927;48.214;16.378;2022-11-12T14:09:02;15.90;46.80
76168;DHT22;64927;48.214;16.378;2022-11-12T14:19:33;15.80;47.50
76168;DHT22;64927;48.214;16.378;2022-11-12T14:24:33;15.70;47.40
76168;DHT22;64927;48.214;16.378;2022-11-12T14:26:59;15.70;48.00
76168;DHT22;64927;48.214;16.378;2022-11-12T14:29:27;15.70;48.30
76168;DHT22;64927;48.214;16.378;2022-11-12T14:32:00;15.60;48.30
76168;DHT22;64927;48.214;16.378;2022-11-12T14:34:31;15.60;48.70
76168;DHT22;64927;48.214;16.378;2022-11-12T14:36:58;15.50;48.90
76168;DHT22;64927;48.214;16.378;2022-11-12T14:39:26;15.50;49.30
76168;DHT22;64927;48.214;16.378;2022-11-12T14:41:56;15.50;49.60
76168;DHT22;64927;48.214;16.378;2022-11-12T14:44:32;15.30;49.80
76168;DHT22;64927;48.214;16.378;2022-11-12T14:46:59;15.30;50.20
76168;DHT22;64927;48.214;16.378;2022-11-12T14:49:41;15.20;50.20
76168;DHT22;64927;48.214;16.378;2022-11-12T14:54:51;15.10;51.30
76168;DHT22;64927;48.214;16.378;2022-11-12T14:57:27;15.00;51.20
76168;DHT22;64927;48.214;16.378;2022-11-12T14:59:55;15.00;51.40
76168;DHT22;64927;48.214;16.378;2022-11-12T15:02:26;14.90;51.80
76168;DHT22;64927;48.214;16.378;2022-11-12T15:05:19;14.90;51.70
76168;DHT22;64927;48.214;16.378;2022-11-12T15:13:15;14.70;52.50
76168;DHT22;64927;48.214;16.378;2022-11-12T15:15:55;14.70;52.70
76168;DHT22;64927;48.214;16.378;2022-11-12T15:18:26;14.60;53.10
76168;DHT22;64927;48.214;16.378;2022-11-12T15:23:52;14.50;53.40
76168;DHT22;64927;48.214;16.378;2022-11-12T15:26:40;14.50;53.50
76168;DHT22;64927;48.214;16.378;2022-11-12T15:31:54;14.30;53.80
76168;DHT22;64927;48.214;16.378;2022-11-12T15:36:54;14.10;54.40
76168;DHT22;64927;48.214;16.378;2022-11-12T15:39:20;14.10;54.60
76168;DHT22;64927;48.214;16.378;2022-11-12T15:41:46;14.00;54.80
76168;DHT22;64927;48.214;16.378;2022-11-12T15:44:13;13.90;55.00
76168;DHT22;64927;48.214;16.378;2022-11-12T15:46:41;13.80;55.00
76168;DHT22;64927;48.214;16.378;2022-11-12T15:49:12;13.80;55.20
76168;DHT22;64927;48.214;16.378;2022-11-12T15:51:37;13.70;55.40
76168;DHT22;64927;48.214;16.378;2022-11-12T15:54:03;13.60;55.60
76168;DHT22;64927;48.214;16.378;2022-11-12T15:56:29;13.60;55.60
76168;DHT22;64927;48.214;16.378;2022-11-12T15:58:58;13.50;55.90
76168;DHT22;64927;48.214;16.378;2022-11-12T16:01:24;13.50;56.00
76168;DHT22;64927;48.214;16.378;2022-11-12T16:03:52;13.40;56.10
76168;DHT22;64927;48.214;16.378;2022-11-12T16:06:17;13.40;56.40
76168;DHT22;64927;48.214;16.378;2022-11-12T16:08:43;13.30;56.50
76168;DHT22;64927;48.214;16.378;2022-11-12T16:11:12;13.20;57.50
76168;DHT22;64927;48.214;16.378;2022-11-12T16:13:57;13.20;56.80
76168;DHT22;64927;48.214;16.378;2022-11-12T16:16:23;13.10;56.90
76168;DHT22;64927;48.214;16.378;2022-11-12T16:18:49;13.10;58.10
76168;DHT22;64927;48.214;16.378;2022-11-12T16:21:17;13.00;57.30
76168;DHT22;64927;48.214;16.378;2022-11-12T16:23:43;13.00;57.50
76168;DHT22;64927;48.214;16.378;2022-11-12T16:26:14;12.90;58.40
76168;DHT22;64927;48.214;16.378;2022-11-12T16:28:42;12.80;58.30
76168;DHT22;64927;48.214;16.378;2022-11-12T16:31:08;12.90;58.50
76168;DHT22;64927;48.214;16.378;2022-11-12T16:33:34;12.90;58.60
76168;DHT22;64927;48.214;16.378;2022-11-12T16:36:02;12.80;58.70
76168;DHT22;64927;48.214;16.378;2022-11-12T16:38:30;12.80;58.80
76168;DHT22;64927;48.214;16.378;2022-11-12T16:40:56;12.80;59.00
76168;DHT22;64927;48.214;16.378;2022-11-12T16:43:24;12.70;59.00
76168;DHT22;64927;48.214;16.378;2022-11-12T16:45:49;12.70;59.20
76168;DHT22;64927;48.214;16.378;2022-11-12T16:48:20;12.70;59.40
76168;DHT22;64927;48.214;16.378;2022-11-12T16:50:47;12.70;59.70
76168;DHT22;64927;48.214;16.378;2022-11-12T16:53:13;12.60;60.00
76168;DHT22;64927;48.214;16.378;2022-11-12T16:55:39;12.50;61.00
76168;DHT22;64927;48.214;16.378;2022-11-12T16:58:04;12.50;61.60
76168;DHT22;64927;48.214;16.378;2022-11-12T17:00:30;12.50;62.30
76168;DHT22;64927;48.214;16.378;2022-11-12T17:02:56;12.50;62.70
76168;DHT22;64927;48.214;16.378;2022-11-12T17:05:23;12.50;63.10
76168;DHT22;64927;48.214;16.378;2022-11-12T17:07:56;12.40;63.20
76168;DHT22;64927;48.214;16.378;2022-11-12T17:10:22;12.30;64.90
76168;DHT22;64927;48.214;16.378;2022-11-12T17:12:51;12.30;65.10
76168;DHT22;64927;48.214;16.378;2022-11-12T17:15:17;12.30;65.30
76168;DHT22;64927;48.214;16.378;2022-11-12T17:17:43;12.30;65.50
76168;DHT22;64927;48.214;16.378;2022-11-12T17:20:09;12.40;66.00
76168;DHT22;64927;48.214;16.378;2022-11-12T17:22:36;12.30;66.60
76168;DHT22;64927;48.214;16.378;2022-11-12T17:25:02;12.30;66.50
76168;DHT22;64927;48.214;16.378;2022-11-12T17:27:28;12.30;66.80
76168;DHT22;64927;48.214;16.378;2022-11-12T17:29:54;12.30;67.00
76168;DHT22;64927;48.214;16.378;2022-11-12T17:32:20;12.30;67.20
76168;DHT22;64927;48.214;16.378;2022-11-12T17:34:47;12.20;67.10
76168;DHT22;64927;48.214;16.378;2022-11-12T17:37:18;12.20;67.30
76168;DHT22;64927;48.214;16.378;2022-11-12T17:39:43;12.20;67.60
76168;DHT22;64927;48.214;16.378;2022-11-12T17:42:09;12.20;67.90
76168;DHT22;64927;48.214;16.378;2022-11-12T17:44:35;12.10;67.70
76168;DHT22;64927;48.214;16.378;2022-11-12T17:47:01;12.10;67.70
76168;DHT22;64927;48.214;16.378;2022-11-12T17:49:27;12.10;68.00
76168;DHT22;64927;48.214;16.378;2022-11-12T17:51:53;12.10;68.30
76168;DHT22;64927;48.214;16.378;2022-11-12T17:54:19;12.10;68.00
76168;DHT22;64927;48.214;16.378;2022-11-12T17:56:45;12.10;68.30
76168;DHT22;64927;48.214;16.378;2022-11-12T17:59:13;12.10;68.20
76168;DHT22;64927;48.214;16.378;2022-11-12T18:01:41;12.10;68.40
76168;DHT22;64927;48.214;16.378;2022-11-12T18:04:09;12.10;68.40